Flight Track Log - Related Links

Times and Time Zones

All times are in EDT time to prevent confusion due to time zone crossing. See the SWA315 flight status page for this flight to view local times or setup timezone preferences in your user account.

Time Position Orientation Groundspeed Altitude Reporting Facility
EDT Latitude Longitude Course Direction KTS MPH feet Rate Location/Type
Mon 12:22:34 AM 37.7333 -122.2500 288° West 154 177 1,900  Level Northern Cal TRACON
Mon 12:22:58 AM 37.7358 -122.2600 288° West 152 175 2,400 1,694 Climbing Oakland Center
Mon 12:23:59 AM 37.7581 -122.3147 297° West 171 197 4,300 3,295 Climbing Oakland Center
Mon 12:25:00 AM 37.7667 -122.3886 278° West 191 220 9,100 2,803 Climbing Oakland Center
Mon 12:26:01 AM 37.6953 -122.4028 189° South 252 290 10,000 439 Climbing Oakland Center
Mon 12:27:03 AM 37.6036 -122.4131 185° South 309 356 10,000 1,951 Level Oakland Center
Mon 12:28:04 AM 37.5067 -122.4125 180° South 359 413 14,000 3,885 Climbing Oakland Center
Mon 12:29:05 AM 37.4342 -122.3053 130° Southeast 412 474 17,900 3,541 Climbing Oakland Center
Mon 12:30:06 AM 37.3589 -122.1842 128° Southeast 434 499 21,200 3,344 Climbing Oakland Center
Mon 12:31:07 AM 37.2792 -122.0550 128° Southeast 460 529 24,700 2,852 Climbing Oakland Center
Mon 12:32:08 AM 37.1972 -121.9208 127° Southeast 479 551 27,000 2,164 Climbing Oakland Center
Mon 12:33:09 AM 37.1106 -121.7786 127° Southeast 510 587 29,100 2,033 Climbing Oakland Center
Mon 12:34:09 AM 37.0094 -121.6325 131° Southeast 545 627 31,100 2,033 Climbing Oakland Center
Mon 12:35:10 AM 36.9069 -121.4864 131° Southeast 559 643 33,200 2,508 Climbing Oakland Center
Mon 12:36:11 AM 36.8036 -121.3292 129° Southeast 558 642 36,200 2,754 Climbing Oakland Center
Mon 12:37:12 AM 36.7164 -121.1811 126° Southeast 530 610 38,800 1,377 Climbing Oakland Center
Mon 12:38:13 AM 36.6261 -121.0383 128° Southeast 526 605 39,000 49 Climbing Oakland Center
Mon 12:39:14 AM 36.5381 -120.8900 126° Southeast 532 612 38,900  Descending Oakland Center
Mon 12:40:15 AM 36.4472 -120.7439 128° Southeast 535 616 39,000 49 Climbing Oakland Center
Mon 12:41:16 AM 36.3272 -120.5797 132° Southeast 535 616 39,000  Level Oakland Center
Mon 12:42:17 AM 36.2286 -120.4442 132° Southeast 532 612 39,000  Level Oakland Center
Mon 12:43:18 AM 36.1344 -120.3128 132° Southeast 512 589 39,000  Level Oakland Center
Mon 12:44:19 AM 36.0411 -120.1833 132° Southeast 504 580 39,000  Level Oakland Center
Mon 12:45:20 AM 35.9494 -120.0597 132° Southeast 489 563 39,000  Level Oakland Center
Mon 12:46:21 AM 35.8558 -119.9286 131° Southeast 503 579 39,000  Level Oakland Center
Mon 12:47:22 AM 35.7678 -119.7908 128° Southeast 506 582 39,000  Level Oakland Center
Mon 12:48:23 AM 35.6783 -119.6511 128° Southeast 516 594 39,000  Level Oakland Center
Mon 12:49:24 AM 35.5892 -119.5136 129° Southeast 513 590 39,000  Level Oakland Center
Mon 12:50:25 AM 35.5000 -119.3778 129° Southeast 510 587 39,000  Level Oakland Center
Mon 12:51:26 AM 35.4125 -119.2431 129° Southeast 505 581 39,000  Level Oakland Center
Mon 12:52:27 AM 35.3258 -119.1094 128° Southeast 501 577 39,000  Level Oakland Center
Mon 12:53:30 AM 35.2406 -118.9775 128° Southeast 498 573 39,000  Level Los Angeles Center
Mon 12:54:32 AM 35.1539 -118.8461 129° Southeast 494 568 39,000  Level Los Angeles Center
Mon 12:55:33 AM 35.0497 -118.6900 129° Southeast 494 568 39,000  Level Los Angeles Center
Mon 12:56:34 AM 34.9667 -118.5539 127° Southeast 498 573 39,000 -98 Level Los Angeles Center
Mon 12:57:36 AM 34.9217 -118.4200 112° Southeast 501 577 38,800 -634 Descending Los Angeles Center
Mon 12:58:37 AM 34.8564 -118.2311 113° Southeast 507 583 37,700 -878 Descending Los Angeles Center
Mon 12:59:39 AM 34.8022 -118.0761 113° Southeast 504 580 37,000 -339 Descending Los Angeles Center
Mon 01:00:41 AM 34.7483 -117.9231 113° Southeast 498 573 37,000  Level Los Angeles Center
Mon 01:01:42 AM 34.6958 -117.7686 112° Southeast 499 574 37,000  Level Los Angeles Center
Mon 01:02:43 AM 34.6417 -117.6139 113° Southeast 502 578 37,000  Level Los Angeles Center
Mon 01:03:45 AM 34.5864 -117.4589 113° Southeast 505 581 37,000  Level Los Angeles Center
Mon 01:04:46 AM 34.5211 -117.2747 113° Southeast 501 577 37,000  Level Los Angeles Center
Mon 01:05:48 AM 34.4669 -117.1222 113° Southeast 497 572 37,000  Level Los Angeles Center
Mon 01:06:49 AM 34.4133 -116.9725 113° Southeast 491 565 37,000  Level Los Angeles Center
Mon 01:07:50 AM 34.3608 -116.8242 113° Southeast 483 556 37,000  Level Los Angeles Center
Mon 01:08:52 AM 34.3078 -116.6786 114° Southeast 479 551 37,000  Level Los Angeles Center
Mon 01:09:53 AM 34.2556 -116.5325 113° Southeast 477 549 37,000  Level Los Angeles Center
Mon 01:10:54 AM 34.2031 -116.3831 113° Southeast 484 557 37,000  Level Los Angeles Center
Mon 01:11:56 AM 34.1481 -116.2369 114° Southeast 481 554 37,000  Level Los Angeles Center
Mon 01:12:57 AM 34.0928 -116.0856 114° Southeast 475 547 37,000  Level Los Angeles Center
Mon 01:13:58 AM 34.0267 -115.9053 114° Southeast 486 559 37,000  Level Los Angeles Center
Mon 01:15:00 AM 33.9681 -115.7478 114° Southeast 507 583 37,000  Level Los Angeles Center
Mon 01:16:01 AM 33.9117 -115.5981 114° Southeast 493 567 37,000  Level Los Angeles Center
Mon 01:17:02 AM 33.8564 -115.4503 114° Southeast 487 560 37,000  Level Los Angeles Center
Mon 01:18:04 AM 33.7986 -115.3017 115° Southeast 489 563 37,000  Level Los Angeles Center
Mon 01:19:05 AM 33.7431 -115.1525 114° Southeast 489 563 37,000  Level Los Angeles Center
Mon 01:20:06 AM 33.6864 -115.0061 115° Southeast 485 558 37,000  Level Los Angeles Center
Mon 01:21:07 AM 33.6331 -114.8664 115° Southeast 474 545 37,000 -98 Level Los Angeles Center
Mon 01:22:09 AM 33.5839 -114.7219 112° Southeast 470 541 36,800 -1,415 Descending Los Angeles Center
Mon 01:23:10 AM 33.5567 -114.5669 102° East 474 545 34,100 -3,148 Descending Los Angeles Center
Mon 01:24:11 AM 33.5211 -114.3803 103° East 477 549 30,400 -3,295 Descending Los Angeles Center
Mon 01:25:12 AM 33.4908 -114.2231 103° East 480 552 27,400 -2,634 Descending Los Angeles Center
Mon 01:26:14 AM 33.4594 -114.0717 104° East 477 549 25,000 -1,143 Descending Los Angeles Center
Mon 01:27:18 AM 33.4322 -113.9250 103° East 450 518 25,000  Level Albuquerque Center
Mon 01:28:19 AM 33.4033 -113.7822 104° East 443 510 25,000  Level Albuquerque Center
Mon 01:29:19 AM 33.3758 -113.6400 103° East 441 507 25,000  Level Albuquerque Center
Mon 01:30:20 AM 33.3600 -113.4947 97° East 441 507 25,000 -149 Level Albuquerque Center
Mon 01:31:20 AM 33.3436 -113.3478 98° East 444 511 24,700 -1,488 Descending Albuquerque Center
Mon 01:32:21 AM 33.3269 -113.2039 98° East 440 506 22,000 -2,508 Descending Albuquerque Center
Mon 01:33:22 AM 33.3103 -113.0664 98° East 426 490 19,600 -2,479 Descending Albuquerque Center
Mon 01:34:22 AM 33.2942 -112.9336 98° East 410 472 17,000 -2,231 Descending Albuquerque Center
Mon 01:35:23 AM 33.2797 -112.8094 98° East 388 447 15,100 -992 Descending Albuquerque Center
Mon 01:36:23 AM 33.2822 -112.6889 89° East 368 423 15,000 -942 Descending Albuquerque Center
Mon 01:37:24 AM 33.2872 -112.5519 87° East 362 417 13,200 -1,388 Descending Albuquerque Center
Mon 01:38:24 AM 33.2900 -112.4342 88° East 356 410 12,200 -1,091 Descending Albuquerque Center
Mon 01:39:25 AM 33.2939 -112.3189 88° East 349 402 11,000 -1,033 Descending Albuquerque Center
Mon 01:40:26 AM 33.3022 -112.2092 85° East 335 386 10,100 -942 Descending Albuquerque Center
Mon 01:41:26 AM 33.3103 -112.1103 84° East 301 346 9,100 -694 Descending Albuquerque Center
Mon 01:42:27 AM 33.3300 -112.0208 75° East 279 321 8,700 -893 Descending Albuquerque Center
Mon 01:43:27 AM 33.3464 -111.9483 75° East 229 264 7,300 -1,686 Descending Albuquerque Center
Mon 01:44:28 AM 33.3467 -111.8783 90° East 212 244 5,300 -1,587 Descending Albuquerque Center
Mon 01:45:28 AM 33.3939 -111.8650 13° North 174 200 4,100 -1,190 Descending Albuquerque Center
Mon 01:46:29 AM 33.4233 -111.8961 319° Northwest 149 171 2,900 -992 Descending Albuquerque Center
Mon 01:47:29 AM 33.4300 -111.9400 280° West 135 155 2,100 -694 Descending Albuquerque Center
Mon 01:48:30 AM 33.4294 -111.9822 269° West 127 146 1,500 -496 Descending Albuquerque Center
Mon 01:49:30 AM 33.4281 -112.0264 268° West 127 146 1,100 -400 Descending Albuquerque Center

Login

Don't have an account? Register now (free) for customized features, flight alerts, and more!